sensor_id;sensor_type;location;lat;lon;timestamp;pressure;altitude;pressure_sealevel;temperature;humidity
15646;BME280;7922;43.622;1.476;2023-07-29T00:00:22;99866.28;;;21.82;88.37
15646;BME280;7922;43.622;1.476;2023-07-29T00:02:47;99844.13;;;21.69;88.77
15646;BME280;7922;43.622;1.476;2023-07-29T00:05:13;99779.31;;;21.30;88.74
15646;BME280;7922;43.622;1.476;2023-07-29T00:07:38;99797.53;;;21.38;88.77
15646;BME280;7922;43.622;1.476;2023-07-29T00:10:04;99831.63;;;21.58;89.49
15646;BME280;7922;43.622;1.476;2023-07-29T00:12:29;99767.66;;;21.20;89.31
15646;BME280;7922;43.622;1.476;2023-07-29T00:14:54;99819.38;;;21.45;89.46
15646;BME280;7922;43.622;1.476;2023-07-29T00:17:20;99785.41;;;21.23;90.15
15646;BME280;7922;43.622;1.476;2023-07-29T00:19:46;99842.66;;;21.55;90.17
15646;BME280;7922;43.622;1.476;2023-07-29T00:22:11;99775.31;;;21.15;90.36
15646;BME280;7922;43.622;1.476;2023-07-29T00:24:36;99815.19;;;21.31;90.37
15646;BME280;7922;43.622;1.476;2023-07-29T00:27:01;99766.25;;;21.06;90.14
15646;BME280;7922;43.622;1.476;2023-07-29T00:29:27;99731.41;;;20.84;90.70
15646;BME280;7922;43.622;1.476;2023-07-29T00:31:52;99767.34;;;21.04;90.91
15646;BME280;7922;43.622;1.476;2023-07-29T00:34:17;99820.22;;;21.35;90.90
15646;BME280;7922;43.622;1.476;2023-07-29T00:36:43;99720.50;;;20.76;90.72
15646;BME280;7922;43.622;1.476;2023-07-29T00:39:08;99757.53;;;20.93;91.19
15646;BME280;7922;43.622;1.476;2023-07-29T00:41:33;99813.63;;;21.19;91.96
15646;BME280;7922;43.622;1.476;2023-07-29T00:43:59;99784.78;;;21.00;92.39
15646;BME280;7922;43.622;1.476;2023-07-29T00:46:24;99777.22;;;20.94;92.85
15646;BME280;7922;43.622;1.476;2023-07-29T00:48:49;99826.09;;;21.20;92.91
15646;BME280;7922;43.622;1.476;2023-07-29T00:51:15;99802.94;;;21.07;93.05
15646;BME280;7922;43.622;1.476;2023-07-29T00:53:40;99810.03;;;21.08;93.49
15646;BME280;7922;43.622;1.476;2023-07-29T00:56:06;99777.34;;;20.82;93.41
15646;BME280;7922;43.622;1.476;2023-07-29T00:58:31;99769.78;;;20.76;93.91
15646;BME280;7922;43.622;1.476;2023-07-29T01:00:57;99773.34;;;20.77;93.52
15646;BME280;7922;43.622;1.476;2023-07-29T01:03:22;99764.38;;;20.66;94.12
15646;BME280;7922;43.622;1.476;2023-07-29T01:06:01;99806.44;;;20.88;94.23
15646;BME280;7922;43.622;1.476;2023-07-29T01:08:56;99786.41;;;20.81;94.29
15646;BME280;7922;43.622;1.476;2023-07-29T01:11:44;99778.44;;;20.70;94.26
15646;BME280;7922;43.622;1.476;2023-07-29T01:14:26;99832.25;;;21.01;94.48
15646;BME280;7922;43.622;1.476;2023-07-29T01:17:00;99771.88;;;20.63;94.49
15646;BME280;7922;43.622;1.476;2023-07-29T01:22:06;99824.72;;;20.95;94.88
15646;BME280;7922;43.622;1.476;2023-07-29T01:24:32;99759.47;;;20.51;94.87
15646;BME280;7922;43.622;1.476;2023-07-29T01:26:58;99781.50;;;20.65;95.30
15646;BME280;7922;43.622;1.476;2023-07-29T01:29:23;99747.78;;;20.40;95.72
15646;BME280;7922;43.622;1.476;2023-07-29T01:31:54;99755.84;;;20.40;95.81
15646;BME280;7922;43.622;1.476;2023-07-29T01:37:36;99776.16;;;20.44;96.01
15646;BME280;7922;43.622;1.476;2023-07-29T01:40:02;99813.38;;;20.60;96.28
15646;BME280;7922;43.622;1.476;2023-07-29T01:42:29;99816.75;;;20.62;96.26
15646;BME280;7922;43.622;1.476;2023-07-29T01:44:54;99837.56;;;20.81;96.15
15646;BME280;7922;43.622;1.476;2023-07-29T01:47:20;99783.81;;;20.49;96.14
15646;BME280;7922;43.622;1.476;2023-07-29T01:49:45;99820.03;;;20.66;96.37
15646;BME280;7922;43.622;1.476;2023-07-29T01:52:11;99799.19;;;20.58;96.42
15646;BME280;7922;43.622;1.476;2023-07-29T01:54:36;99810.00;;;20.68;96.61
15646;BME280;7922;43.622;1.476;2023-07-29T01:57:01;99754.41;;;20.36;96.01
15646;BME280;7922;43.622;1.476;2023-07-29T01:59:27;99805.63;;;20.67;96.35
15646;BME280;7922;43.622;1.476;2023-07-29T02:01:52;99737.66;;;20.23;96.63
15646;BME280;7922;43.622;1.476;2023-07-29T02:04:17;99748.69;;;20.20;96.81
15646;BME280;7922;43.622;1.476;2023-07-29T02:06:42;99717.59;;;20.06;97.09
15646;BME280;7922;43.622;1.476;2023-07-29T02:09:08;99780.47;;;20.36;97.47
15646;BME280;7922;43.622;1.476;2023-07-29T02:11:33;99763.88;;;20.31;97.68
15646;BME280;7922;43.622;1.476;2023-07-29T02:14:00;99800.97;;;20.48;97.49
15646;BME280;7922;43.622;1.476;2023-07-29T02:16:25;99741.84;;;20.16;97.15
15646;BME280;7922;43.622;1.476;2023-07-29T02:18:50;99784.47;;;20.41;97.68
15646;BME280;7922;43.622;1.476;2023-07-29T02:21:16;99805.69;;;20.56;97.76
15646;BME280;7922;43.622;1.476;2023-07-29T02:23:41;99762.75;;;20.33;97.71
15646;BME280;7922;43.622;1.476;2023-07-29T02:26:07;99774.81;;;20.39;97.78
15646;BME280;7922;43.622;1.476;2023-07-29T02:28:32;99742.31;;;20.21;98.27
15646;BME280;7922;43.622;1.476;2023-07-29T02:31:20;99767.03;;;20.36;98.14
15646;BME280;7922;43.622;1.476;2023-07-29T02:33:46;99786.75;;;20.46;98.01
15646;BME280;7922;43.622;1.476;2023-07-29T02:36:12;99731.94;;;20.16;97.90
15646;BME280;7922;43.622;1.476;2023-07-29T02:38:38;99776.41;;;20.41;97.98
15646;BME280;7922;43.622;1.476;2023-07-29T02:41:03;99760.78;;;20.35;97.89
15646;BME280;7922;43.622;1.476;2023-07-29T02:43:28;99776.72;;;20.48;98.30
15646;BME280;7922;43.622;1.476;2023-07-29T02:45:54;99778.97;;;20.43;97.71
15646;BME280;7922;43.622;1.476;2023-07-29T02:48:19;99762.16;;;20.30;97.62
15646;BME280;7922;43.622;1.476;2023-07-29T02:50:44;99790.31;;;20.47;97.59
15646;BME280;7922;43.622;1.476;2023-07-29T02:53:10;99714.16;;;20.04;97.68
15646;BME280;7922;43.622;1.476;2023-07-29T02:55:35;99757.66;;;20.30;97.57
15646;BME280;7922;43.622;1.476;2023-07-29T02:58:00;99747.69;;;20.21;97.33
15646;BME280;7922;43.622;1.476;2023-07-29T03:00:25;99771.56;;;20.35;97.57
15646;BME280;7922;43.622;1.476;2023-07-29T03:02:51;99781.22;;;20.38;97.38
15646;BME280;7922;43.622;1.476;2023-07-29T03:05:16;99757.06;;;20.27;97.87
15646;BME280;7922;43.622;1.476;2023-07-29T03:07:41;99701.78;;;19.92;98.02
15646;BME280;7922;43.622;1.476;2023-07-29T03:10:07;99766.97;;;20.26;98.12
15646;BME280;7922;43.622;1.476;2023-07-29T03:12:32;99716.84;;;20.04;97.91
15646;BME280;7922;43.622;1.476;2023-07-29T03:14:58;99753.22;;;20.19;98.31
15646;BME280;7922;43.622;1.476;2023-07-29T03:17:23;99740.00;;;20.16;98.10
15646;BME280;7922;43.622;1.476;2023-07-29T03:19:48;99692.88;;;19.91;98.07
15646;BME280;7922;43.622;1.476;2023-07-29T03:22:13;99701.53;;;19.95;97.83
15646;BME280;7922;43.622;1.476;2023-07-29T03:24:39;99761.88;;;20.23;98.35
15646;BME280;7922;43.622;1.476;2023-07-29T03:27:04;99761.88;;;20.23;97.88
15646;BME280;7922;43.622;1.476;2023-07-29T03:29:29;99742.13;;;20.13;98.72
15646;BME280;7922;43.622;1.476;2023-07-29T03:31:55;99703.88;;;19.88;98.83
15646;BME280;7922;43.622;1.476;2023-07-29T03:34:20;99758.09;;;20.14;99.10
15646;BME280;7922;43.622;1.476;2023-07-29T03:36:46;99769.34;;;20.19;99.26
15646;BME280;7922;43.622;1.476;2023-07-29T03:39:11;99760.81;;;20.14;99.46
15646;BME280;7922;43.622;1.476;2023-07-29T03:41:37;99701.25;;;19.77;99.66
15646;BME280;7922;43.622;1.476;2023-07-29T03:44:02;99703.50;;;19.72;98.86
15646;BME280;7922;43.622;1.476;2023-07-29T03:46:27;99727.09;;;19.89;98.44
15646;BME280;7922;43.622;1.476;2023-07-29T03:48:52;99703.22;;;19.75;98.09
15646;BME280;7922;43.622;1.476;2023-07-29T03:51:18;99698.81;;;19.74;98.14
15646;BME280;7922;43.622;1.476;2023-07-29T03:53:43;99754.19;;;19.98;98.08
15646;BME280;7922;43.622;1.476;2023-07-29T03:56:08;99751.88;;;19.93;97.96
15646;BME280;7922;43.622;1.476;2023-07-29T03:58:33;99750.44;;;19.89;98.08
15646;BME280;7922;43.622;1.476;2023-07-29T04:00:59;99683.06;;;19.48;98.56
15646;BME280;7922;43.622;1.476;2023-07-29T04:03:24;99703.03;;;19.56;98.57
15646;BME280;7922;43.622;1.476;2023-07-29T04:05:49;99690.13;;;19.49;98.89
15646;BME280;7922;43.622;1.476;2023-07-29T04:08:15;99757.31;;;19.82;99.42
15646;BME280;7922;43.622;1.476;2023-07-29T04:10:40;99751.94;;;19.82;99.72
15646;BME280;7922;43.622;1.476;2023-07-29T04:13:05;99766.81;;;19.86;100.00
15646;BME280;7922;43.622;1.476;2023-07-29T04:15:31;99696.03;;;19.43;100.00
15646;BME280;7922;43.622;1.476;2023-07-29T04:17:56;99726.13;;;19.58;100.00
15646;BME280;7922;43.622;1.476;2023-07-29T04:20:21;99691.75;;;19.41;100.00
15646;BME280;7922;43.622;1.476;2023-07-29T04:22:46;99753.81;;;19.70;100.00
15646;BME280;7922;43.622;1.476;2023-07-29T04:25:12;99756.25;;;19.73;100.00
15646;BME280;7922;43.622;1.476;2023-07-29T04:27:37;99695.34;;;19.30;100.00
15646;BME280;7922;43.622;1.476;2023-07-29T04:30:02;99751.78;;;19.62;100.00
15646;BME280;7922;43.622;1.476;2023-07-29T04:32:28;99760.31;;;19.67;100.00
15646;BME280;7922;43.622;1.476;2023-07-29T04:34:53;99761.28;;;19.66;100.00
15646;BME280;7922;43.622;1.476;2023-07-29T04:37:18;99717.78;;;19.40;100.00
15646;BME280;7922;43.622;1.476;2023-07-29T04:39:44;99728.88;;;19.47;100.00
15646;BME280;7922;43.622;1.476;2023-07-29T04:42:09;99750.16;;;19.60;100.00
15646;BME280;7922;43.622;1.476;2023-07-29T04:44:34;99696.59;;;19.26;100.00
15646;BME280;7922;43.622;1.476;2023-07-29T04:46:59;99716.91;;;19.40;100.00
15646;BME280;7922;43.622;1.476;2023-07-29T04:49:25;99740.81;;;19.54;100.00
15646;BME280;7922;43.622;1.476;2023-07-29T04:51:50;99769.69;;;19.73;100.00
15646;BME280;7922;43.622;1.476;2023-07-29T04:54:15;99742.09;;;19.60;100.00
15646;BME280;7922;43.622;1.476;2023-07-29T04:56:40;99741.16;;;19.61;100.00
15646;BME280;7922;43.622;1.476;2023-07-29T04:59:06;99778.81;;;19.82;100.00
15646;BME280;7922;43.622;1.476;2023-07-29T05:01:31;99695.28;;;19.41;100.00
15646;BME280;7922;43.622;1.476;2023-07-29T05:03:56;99761.44;;;19.86;100.00
15646;BME280;7922;43.622;1.476;2023-07-29T05:06:22;99699.06;;;19.50;100.00
15646;BME280;7922;43.622;1.476;2023-07-29T05:08:47;99784.81;;;20.06;100.00
15646;BME280;7922;43.622;1.476;2023-07-29T05:11:12;99770.63;;;20.04;99.84
15646;BME280;7922;43.622;1.476;2023-07-29T05:13:37;99744.88;;;20.02;99.40
15646;BME280;7922;43.622;1.476;2023-07-29T05:16:03;99772.63;;;20.23;99.11
15646;BME280;7922;43.622;1.476;2023-07-29T05:18:28;99724.63;;;19.98;98.77
15646;BME280;7922;43.622;1.476;2023-07-29T05:20:53;99701.78;;;19.92;98.78
15646;BME280;7922;43.622;1.476;2023-07-29T05:23:18;99691.09;;;20.02;98.47
15646;BME280;7922;43.622;1.476;2023-07-29T05:25:44;99761.91;;;20.54;97.90
15646;BME280;7922;43.622;1.476;2023-07-29T05:28:09;99776.44;;;20.72;97.09
15646;BME280;7922;43.622;1.476;2023-07-29T05:30:34;99724.81;;;20.57;96.44
15646;BME280;7922;43.622;1.476;2023-07-29T05:33:00;99736.91;;;20.73;95.98
15646;BME280;7922;43.622;1.476;2023-07-29T05:35:25;99763.19;;;20.90;95.26
15646;BME280;7922;43.622;1.476;2023-07-29T05:37:51;99735.09;;;20.83;94.84
15646;BME280;7922;43.622;1.476;2023-07-29T05:40:16;99774.31;;;21.06;94.68
15646;BME280;7922;43.622;1.476;2023-07-29T05:42:41;99767.81;;;21.19;94.07
15646;BME280;7922;43.622;1.476;2023-07-29T05:45:08;99757.91;;;21.29;93.35
15646;BME280;7922;43.622;1.476;2023-07-29T05:47:33;99773.56;;;21.45;92.92
15646;BME280;7922;43.622;1.476;2023-07-29T05:49:58;99711.22;;;21.09;92.17
15646;BME280;7922;43.622;1.476;2023-07-29T05:52:24;99765.59;;;21.33;92.02
15646;BME280;7922;43.622;1.476;2023-07-29T05:54:49;99771.97;;;21.32;92.95
15646;BME280;7922;43.622;1.476;2023-07-29T05:57:14;99758.53;;;21.52;92.30
15646;BME280;7922;43.622;1.476;2023-07-29T05:59:39;99767.34;;;21.73;91.16
15646;BME280;7922;43.622;1.476;2023-07-29T06:02:05;99769.31;;;21.81;90.86
15646;BME280;7922;43.622;1.476;2023-07-29T06:04:31;99746.50;;;21.75;90.60
15646;BME280;7922;43.622;1.476;2023-07-29T06:06:56;99758.25;;;21.84;90.56
15646;BME280;7922;43.622;1.476;2023-07-29T06:09:22;99757.94;;;21.97;90.18
15646;BME280;7922;43.622;1.476;2023-07-29T06:11:47;99766.19;;;22.05;89.85
15646;BME280;7922;43.622;1.476;2023-07-29T06:14:13;99757.94;;;22.06;89.54
15646;BME280;7922;43.622;1.476;2023-07-29T06:16:38;99767.31;;;22.22;89.10
15646;BME280;7922;43.622;1.476;2023-07-29T06:19:03;99757.69;;;22.19;88.89
15646;BME280;7922;43.622;1.476;2023-07-29T06:21:28;99764.59;;;22.41;88.51
15646;BME280;7922;43.622;1.476;2023-07-29T06:23:54;99723.72;;;22.26;87.52
15646;BME280;7922;43.622;1.476;2023-07-29T06:26:19;99768.38;;;22.58;87.27
15646;BME280;7922;43.622;1.476;2023-07-29T06:28:44;99743.41;;;22.46;87.59
15646;BME280;7922;43.622;1.476;2023-07-29T06:31:10;99783.13;;;22.73;86.58
15646;BME280;7922;43.622;1.476;2023-07-29T06:33:35;99744.75;;;22.70;87.06
15646;BME280;7922;43.622;1.476;2023-07-29T06:36:00;99795.66;;;23.02;85.67
15646;BME280;7922;43.622;1.476;2023-07-29T06:38:25;99726.19;;;22.85;84.52
15646;BME280;7922;43.622;1.476;2023-07-29T06:40:51;99778.88;;;23.26;83.82
15646;BME280;7922;43.622;1.476;2023-07-29T06:43:16;99734.06;;;23.05;82.57
15646;BME280;7922;43.622;1.476;2023-07-29T06:45:42;99777.25;;;23.15;83.22
15646;BME280;7922;43.622;1.476;2023-07-29T06:48:07;99782.84;;;23.32;83.36
15646;BME280;7922;43.622;1.476;2023-07-29T06:50:33;99811.84;;;23.57;82.42
15646;BME280;7922;43.622;1.476;2023-07-29T06:52:58;99803.81;;;23.65;81.57
15646;BME280;7922;43.622;1.476;2023-07-29T06:55:23;99751.94;;;23.34;80.80
15646;BME280;7922;43.622;1.476;2023-07-29T06:57:48;99783.78;;;23.68;80.68
15646;BME280;7922;43.622;1.476;2023-07-29T07:00:14;99805.06;;;23.89;79.82
15646;BME280;7922;43.622;1.476;2023-07-29T07:02:39;99742.38;;;23.40;79.79
15646;BME280;7922;43.622;1.476;2023-07-29T07:05:05;99796.22;;;23.78;80.31
15646;BME280;7922;43.622;1.476;2023-07-29T07:07:30;99743.59;;;23.45;80.78
15646;BME280;7922;43.622;1.476;2023-07-29T07:09:55;99789.78;;;23.97;80.54
15646;BME280;7922;43.622;1.476;2023-07-29T07:12:20;99757.09;;;23.91;79.07
15646;BME280;7922;43.622;1.476;2023-07-29T07:14:46;99788.97;;;24.23;78.67
15646;BME280;7922;43.622;1.476;2023-07-29T07:17:11;99744.78;;;23.96;77.53
15646;BME280;7922;43.622;1.476;2023-07-29T07:19:37;99768.91;;;24.08;78.10
15646;BME280;7922;43.622;1.476;2023-07-29T07:22:02;99802.38;;;24.50;77.95
15646;BME280;7922;43.622;1.476;2023-07-29T07:24:27;99785.88;;;24.62;76.48
15646;BME280;7922;43.622;1.476;2023-07-29T07:26:52;99812.47;;;24.92;75.95
15646;BME280;7922;43.622;1.476;2023-07-29T07:29:18;99795.66;;;24.81;75.38
15646;BME280;7922;43.622;1.476;2023-07-29T07:31:50;99755.88;;;24.55;74.96
15646;BME280;7922;43.622;1.476;2023-07-29T07:34:15;99781.41;;;24.79;74.44
15646;BME280;7922;43.622;1.476;2023-07-29T07:36:40;99789.75;;;24.93;74.28
15646;BME280;7922;43.622;1.476;2023-07-29T07:39:06;99797.03;;;25.19;73.20
15646;BME280;7922;43.622;1.476;2023-07-29T07:41:31;99796.00;;;25.20;72.96
15646;BME280;7922;43.622;1.476;2023-07-29T07:43:56;99784.44;;;25.10;71.49
15646;BME280;7922;43.622;1.476;2023-07-29T07:46:21;99787.75;;;24.95;72.98
15646;BME280;7922;43.622;1.476;2023-07-29T07:48:47;99795.84;;;25.21;71.34
15646;BME280;7922;43.622;1.476;2023-07-29T07:51:13;99797.44;;;25.40;69.80
15646;BME280;7922;43.622;1.476;2023-07-29T07:53:38;99803.59;;;25.59;69.32
15646;BME280;7922;43.622;1.476;2023-07-29T07:56:03;99771.66;;;25.44;68.35
15646;BME280;7922;43.622;1.476;2023-07-29T07:58:29;99803.84;;;25.82;67.77
15646;BME280;7922;43.622;1.476;2023-07-29T08:01:03;99793.81;;;25.90;67.31
15646;BME280;7922;43.622;1.476;2023-07-29T08:03:29;99801.78;;;25.92;66.89
15646;BME280;7922;43.622;1.476;2023-07-29T08:05:54;99799.94;;;26.09;67.23
15646;BME280;7922;43.622;1.476;2023-07-29T08:08:19;99815.03;;;26.28;66.78
15646;BME280;7922;43.622;1.476;2023-07-29T08:10:44;99757.84;;;25.88;66.64
15646;BME280;7922;43.622;1.476;2023-07-29T08:13:10;99818.94;;;26.17;65.52
15646;BME280;7922;43.622;1.476;2023-07-29T08:15:35;99795.88;;;26.05;66.11
15646;BME280;7922;43.622;1.476;2023-07-29T08:18:00;99790.28;;;26.14;66.00
15646;BME280;7922;43.622;1.476;2023-07-29T08:20:26;99807.75;;;26.36;65.05
15646;BME280;7922;43.622;1.476;2023-07-29T08:22:51;99759.19;;;26.25;65.13
15646;BME280;7922;43.622;1.476;2023-07-29T08:25:16;99785.31;;;26.42;64.03
15646;BME280;7922;43.622;1.476;2023-07-29T08:27:41;99808.56;;;26.61;65.07
15646;BME280;7922;43.622;1.476;2023-07-29T08:30:07;99806.00;;;26.68;64.67
15646;BME280;7922;43.622;1.476;2023-07-29T08:32:32;99811.63;;;26.67;64.04
15646;BME280;7922;43.622;1.476;2023-07-29T08:34:58;99799.25;;;26.56;65.60
15646;BME280;7922;43.622;1.476;2023-07-29T08:37:23;99763.59;;;26.42;65.24
15646;BME280;7922;43.622;1.476;2023-07-29T08:39:48;99794.78;;;26.87;63.42
15646;BME280;7922;43.622;1.476;2023-07-29T08:42:15;99738.91;;;26.69;62.36
15646;BME280;7922;43.622;1.476;2023-07-29T08:44:44;99783.13;;;27.10;63.13
15646;BME280;7922;43.622;1.476;2023-07-29T08:47:11;99800.22;;;27.35;61.45
15646;BME280;7922;43.622;1.476;2023-07-29T08:49:36;99801.19;;;27.42;60.89
15646;BME280;7922;43.622;1.476;2023-07-29T08:52:03;99786.47;;;27.28;60.27
15646;BME280;7922;43.622;1.476;2023-07-29T08:54:29;99788.75;;;27.17;59.74
15646;BME280;7922;43.622;1.476;2023-07-29T08:56:54;99812.09;;;27.34;60.45
15646;BME280;7922;43.622;1.476;2023-07-29T08:59:19;99774.13;;;27.09;59.39
15646;BME280;7922;43.622;1.476;2023-07-29T09:01:46;99790.28;;;27.03;60.15
15646;BME280;7922;43.622;1.476;2023-07-29T09:04:12;99812.59;;;27.38;60.49
15646;BME280;7922;43.622;1.476;2023-07-29T09:06:39;99813.63;;;27.68;59.74
15646;BME280;7922;43.622;1.476;2023-07-29T09:09:05;99734.84;;;27.12;59.03
15646;BME280;7922;43.622;1.476;2023-07-29T09:11:32;99787.78;;;27.64;59.02
15646;BME280;7922;43.622;1.476;2023-07-29T09:13:58;99736.13;;;27.32;58.37
15646;BME280;7922;43.622;1.476;2023-07-29T09:16:24;99808.63;;;27.79;58.31
15646;BME280;7922;43.622;1.476;2023-07-29T09:18:50;99800.31;;;27.73;59.31
15646;BME280;7922;43.622;1.476;2023-07-29T09:21:24;99790.56;;;27.87;57.82
15646;BME280;7922;43.622;1.476;2023-07-29T09:23:50;99770.09;;;27.91;57.86
15646;BME280;7922;43.622;1.476;2023-07-29T09:26:22;99760.19;;;27.67;57.91
15646;BME280;7922;43.622;1.476;2023-07-29T09:28:54;99805.94;;;28.17;57.91
15646;BME280;7922;43.622;1.476;2023-07-29T09:31:23;99762.34;;;27.79;56.34
15646;BME280;7922;43.622;1.476;2023-07-29T09:33:49;99795.25;;;28.16;56.07
15646;BME280;7922;43.622;1.476;2023-07-29T09:36:15;99790.63;;;28.39;56.66
15646;BME280;7922;43.622;1.476;2023-07-29T09:38:40;99785.66;;;28.43;54.01
15646;BME280;7922;43.622;1.476;2023-07-29T09:41:06;99786.91;;;28.40;54.13
15646;BME280;7922;43.622;1.476;2023-07-29T09:43:33;99770.56;;;28.55;53.85
15646;BME280;7922;43.622;1.476;2023-07-29T09:46:05;99723.13;;;28.26;52.91
15646;BME280;7922;43.622;1.476;2023-07-29T09:48:37;99749.06;;;28.22;53.83
15646;BME280;7922;43.622;1.476;2023-07-29T09:51:13;99818.47;;;28.49;53.72
15646;BME280;7922;43.622;1.476;2023-07-29T09:53:44;99786.91;;;28.32;53.66
15646;BME280;7922;43.622;1.476;2023-07-29T09:56:10;99798.09;;;28.75;53.91
15646;BME280;7922;43.622;1.476;2023-07-29T09:58:36;99795.81;;;28.49;53.62
15646;BME280;7922;43.622;1.476;2023-07-29T10:01:01;99775.06;;;28.63;53.86
15646;BME280;7922;43.622;1.476;2023-07-29T10:03:27;99805.63;;;28.73;53.23
15646;BME280;7922;43.622;1.476;2023-07-29T10:05:53;99804.50;;;28.97;53.63
15646;BME280;7922;43.622;1.476;2023-07-29T10:08:18;99787.28;;;28.82;52.70
15646;BME280;7922;43.622;1.476;2023-07-29T10:10:45;99784.66;;;28.73;52.56
15646;BME280;7922;43.622;1.476;2023-07-29T10:13:12;99788.34;;;28.95;52.22
15646;BME280;7922;43.622;1.476;2023-07-29T10:15:38;99796.13;;;29.28;52.43
15646;BME280;7922;43.622;1.476;2023-07-29T10:18:03;99743.06;;;29.16;51.34
15646;BME280;7922;43.622;1.476;2023-07-29T10:20:34;99785.66;;;29.46;50.38
15646;BME280;7922;43.622;1.476;2023-07-29T10:23:00;99764.81;;;29.24;50.39
15646;BME280;7922;43.622;1.476;2023-07-29T10:25:39;99794.88;;;29.60;50.61
15646;BME280;7922;43.622;1.476;2023-07-29T10:28:07;99754.09;;;29.80;49.67
15646;BME280;7922;43.622;1.476;2023-07-29T10:30:33;99794.31;;;30.29;49.08
15646;BME280;7922;43.622;1.476;2023-07-29T10:33:02;99796.69;;;30.39;48.25
15646;BME280;7922;43.622;1.476;2023-07-29T10:35:28;99811.06;;;30.05;48.10
15646;BME280;7922;43.622;1.476;2023-07-29T10:37:54;99797.66;;;29.88;48.43
15646;BME280;7922;43.622;1.476;2023-07-29T10:40:20;99807.63;;;29.74;48.30
15646;BME280;7922;43.622;1.476;2023-07-29T10:43:02;99793.91;;;29.17;49.62
15646;BME280;7922;43.622;1.476;2023-07-29T10:45:37;99732.88;;;29.03;49.88
15646;BME280;7922;43.622;1.476;2023-07-29T10:48:12;99715.34;;;29.12;49.05
15646;BME280;7922;43.622;1.476;2023-07-29T10:50:38;99714.78;;;29.17;49.11
15646;BME280;7922;43.622;1.476;2023-07-29T10:53:04;99790.13;;;30.12;49.26
15646;BME280;7922;43.622;1.476;2023-07-29T10:55:32;99749.47;;;30.02;47.93
15646;BME280;7922;43.622;1.476;2023-07-29T10:58:24;99807.38;;;30.12;47.20
15646;BME280;7922;43.622;1.476;2023-07-29T11:00:49;99779.28;;;29.76;48.47
15646;BME280;7922;43.622;1.476;2023-07-29T11:03:15;99713.84;;;29.10;49.07
15646;BME280;7922;43.622;1.476;2023-07-29T11:05:51;99769.44;;;29.23;49.29
15646;BME280;7922;43.622;1.476;2023-07-29T11:08:36;99790.72;;;29.49;49.48
15646;BME280;7922;43.622;1.476;2023-07-29T11:11:06;99791.41;;;29.37;49.54
15646;BME280;7922;43.622;1.476;2023-07-29T11:13:34;99780.38;;;29.45;48.99
15646;BME280;7922;43.622;1.476;2023-07-29T11:16:00;99784.06;;;29.37;49.02
15646;BME280;7922;43.622;1.476;2023-07-29T11:18:31;99789.28;;;29.90;48.63
15646;BME280;7922;43.622;1.476;2023-07-29T11:20:57;99754.75;;;30.04;48.29
15646;BME280;7922;43.622;1.476;2023-07-29T11:23:34;99744.28;;;30.29;47.67
15646;BME280;7922;43.622;1.476;2023-07-29T11:26:00;99773.13;;;30.66;46.83
15646;BME280;7922;43.622;1.476;2023-07-29T11:28:26;99743.63;;;30.27;46.71
15646;BME280;7922;43.622;1.476;2023-07-29T11:30:52;99764.19;;;30.51;47.28
15646;BME280;7922;43.622;1.476;2023-07-29T11:33:20;99742.28;;;30.44;46.42
15646;BME280;7922;43.622;1.476;2023-07-29T11:35:46;99744.53;;;30.12;46.89
15646;BME280;7922;43.622;1.476;2023-07-29T11:38:15;99750.53;;;30.01;46.89
15646;BME280;7922;43.622;1.476;2023-07-29T11:40:41;99736.22;;;29.78;47.23
15646;BME280;7922;43.622;1.476;2023-07-29T11:43:06;99748.63;;;30.23;47.57
15646;BME280;7922;43.622;1.476;2023-07-29T11:45:31;99749.56;;;30.65;46.66
15646;BME280;7922;43.622;1.476;2023-07-29T11:47:58;99766.19;;;30.98;45.88
15646;BME280;7922;43.622;1.476;2023-07-29T11:50:23;99750.31;;;30.80;45.17
15646;BME280;7922;43.622;1.476;2023-07-29T11:52:48;99741.81;;;30.68;44.94
15646;BME280;7922;43.622;1.476;2023-07-29T11:55:15;99750.22;;;31.08;45.15
15646;BME280;7922;43.622;1.476;2023-07-29T11:57:41;99745.78;;;31.49;45.36
15646;BME280;7922;43.622;1.476;2023-07-29T12:00:09;99750.28;;;31.90;44.34
15646;BME280;7922;43.622;1.476;2023-07-29T12:02:37;99734.06;;;31.95;43.58
15646;BME280;7922;43.622;1.476;2023-07-29T12:05:04;99738.22;;;31.64;43.30
15646;BME280;7922;43.622;1.476;2023-07-29T12:07:30;99752.50;;;31.46;43.79
15646;BME280;7922;43.622;1.476;2023-07-29T12:09:56;99704.25;;;30.84;44.26
15646;BME280;7922;43.622;1.476;2023-07-29T12:12:24;99699.97;;;30.75;43.80
15646;BME280;7922;43.622;1.476;2023-07-29T12:14:49;99739.25;;;31.02;43.69
15646;BME280;7922;43.622;1.476;2023-07-29T12:17:15;99754.81;;;31.43;43.68
15646;BME280;7922;43.622;1.476;2023-07-29T12:19:41;99749.38;;;31.56;43.18
15646;BME280;7922;43.622;1.476;2023-07-29T12:22:09;99746.88;;;31.74;44.00
15646;BME280;7922;43.622;1.476;2023-07-29T12:24:37;99750.28;;;32.09;43.29
15646;BME280;7922;43.622;1.476;2023-07-29T12:27:02;99708.13;;;31.91;42.42
15646;BME280;7922;43.622;1.476;2023-07-29T12:29:28;99711.50;;;31.86;42.45
15646;BME280;7922;43.622;1.476;2023-07-29T12:31:59;99749.03;;;32.19;42.71
15646;BME280;7922;43.622;1.476;2023-07-29T12:34:25;99741.41;;;32.34;42.29
15646;BME280;7922;43.622;1.476;2023-07-29T12:36:51;99657.53;;;32.06;42.29
15646;BME280;7922;43.622;1.476;2023-07-29T12:39:22;99736.38;;;32.51;40.73
15646;BME280;7922;43.622;1.476;2023-07-29T12:41:48;99729.81;;;32.65;41.64
15646;BME280;7922;43.622;1.476;2023-07-29T12:44:14;99727.91;;;32.66;41.56
15646;BME280;7922;43.622;1.476;2023-07-29T12:46:39;99723.50;;;32.45;40.86
15646;BME280;7922;43.622;1.476;2023-07-29T12:49:05;99725.63;;;31.96;41.88
15646;BME280;7922;43.622;1.476;2023-07-29T12:51:30;99711.50;;;31.93;42.25
15646;BME280;7922;43.622;1.476;2023-07-29T12:53:56;99711.25;;;32.27;41.90
15646;BME280;7922;43.622;1.476;2023-07-29T12:56:21;99728.31;;;31.76;41.65
15646;BME280;7922;43.622;1.476;2023-07-29T12:58:46;99674.63;;;31.01;42.87
15646;BME280;7922;43.622;1.476;2023-07-29T13:01:12;99710.03;;;31.15;43.30
15646;BME280;7922;43.622;1.476;2023-07-29T13:03:37;99665.00;;;31.25;42.98
15646;BME280;7922;43.622;1.476;2023-07-29T13:06:02;99708.72;;;31.79;42.74
15646;BME280;7922;43.622;1.476;2023-07-29T13:08:30;99704.09;;;32.13;41.10
15646;BME280;7922;43.622;1.476;2023-07-29T13:10:55;99721.81;;;32.30;40.40